Airfield :







YOU CAN JOIN US ON...

 
LOGIN :

Register | Disclaimer

   EN    FR    IT 

 









Legend :    VFR   Marginal VFR   IFR   Intensive IFR   Very Intensive IFR
Visi :
Ceiling :
>= 8 km
>= 3000ft
5 to 8 km
1000 to 3000 ft
1500m to 5 km
500 to 1000 ft
800 to 1500m
200 to 500 ft
< 800m
< 200 ft
Symbols :   Thunderstorms  Fog  Heavy snow  Heavy precipitations  Wind > 20 kt






- Airport Elevation : 1808 ft
- IATA code : YWK


CYWK - Wabush

CURRENT METAR :
  • 170411Z AUTO 29012KT 9SM CLR M13/M16 A3009 RMK SLP239

EXPIRED METARs :
  • 170300Z 29008KT 15SM -SHSN FEW022 M13/M16 A3009 RMK CU1 LAST STFD OBS/NEXT 171100 UTC SLP238
  • 170200Z 28013KT 15SM -SHSN FEW022 M12/M16 A3006 RMK CU1 SLP229

TAF TAF CYWK
Valid from the 17 at 02:00 until the 17 at 14:00 UTC


170138Z 1702/1714 30010G20KT P6SM SCT030
TEMPO 1702/1712 3SM BLSN
FM171200 25008KT P6SM OVC090 RMK NXT FCST BY 170800Z



MET'MAP, your aeronautical weather chart ! - Copyright ORBIFLY December 2007 - Disclaimer

ORBIFLY MET'MAP TEAM :

Programming & Development : Alexandra Zaïnal
Concept & Development : Baudouin d'Aumeries
Co-Development & Prog : Marc-Olivier Méhu
Technical & hardware support : Manuel Goepfert

Contact : metmap@orbifly.com




SOURCES & CREDITS :

   NOAA